Summary for RAINWISE1

Rainwise Factory, Bar Harbor, ME 04609
Join the PWSweather.com Network
View data in metric units
Latest Conditions
Updated 3:40:00 PM EDT Saturday, Apr 19, 2014
Data Currently Today's Max Today's Min Today's Average
Temperature 49.2°F9.6°C 52.0°F11.1°C 28.3°F-2.1°C 38.9°F3.8°C
Dew Point 33.7°F0.9°C 44.2°F6.8°C 26.5°F-3.1°C 33.8°F1.0°C
Winds 12.0 mph NNW19.3 kmh NNW 15.0 mph NNW24.1 kmh NNW CalmCalm 4.6 mph7.4 kmh
Wind Gusts 21.8 mph35.1 kmh 27.5 mph44.3 kmh -- 8.5 mph13.7 kmh
Humidity 57% 98% 55% 86%
Pressure 30.21 in1023.0 mb 30.32 in1026.8 mb 30.19 in1022.4 mb 30.22 in1023.4 mb
Precipitation 0.01 in0.3 mm - - 0.00 in0.0 mm
Trends
 
Station Profile
Rainwise FactoryBar Harbor, ME 04609

Lat: 44.39, Lon: -68.208
Elevation: 29
Station Type: Rainwise MK-III

Detailed Summary for Sat, Apr 19, 2014
Hour (EDT) Temperature Dew Point Humidity Winds Wind Gusts Pressure Precip Precip Rate Daily Precip Total
03:40 PM 49.2°F9.6°C 33.7°F0.9°C 57% 12.0 mph NNW19.3 kmh NNW 21.8 mph35.1 kmh 30.21 in1023.0 mb 0.00 in0.0 mm 0.00 in/hr0.0 mm/hr 0.01 in0.3 mm
03:35 PM 49.3°F9.6°C 33.4°F0.8°C 56% 10.8 mph NNW17.4 kmh NNW 20.3 mph32.7 kmh 30.21 in1023.0 mb 0.00 in0.0 mm 0.00 in/hr0.0 mm/hr 0.01 in0.3 mm
03:30 PM 49.7°F9.8°C 33.5°F0.8°C 55% 11.7 mph NNW18.8 kmh NNW 22.1 mph35.6 kmh 30.21 in1023.0 mb 0.00 in0.0 mm 0.00 in/hr0.0 mm/hr 0.01 in0.3 mm
03:25 PM 50.2°F10.1°C 34.0°F1.1°C 55% 11.5 mph NNW18.5 kmh NNW 21.0 mph33.8 kmh 30.21 in1023.0 mb 0.00 in0.0 mm 0.00 in/hr0.0 mm/hr 0.01 in0.3 mm
03:20 PM 51.0°F10.6°C 35.1°F1.7°C 56% 14.1 mph NNW22.7 kmh NNW 24.6 mph39.6 kmh 30.21 in1023.0 mb 0.00 in0.0 mm 0.00 in/hr0.0 mm/hr 0.01 in0.3 mm
03:15 PM 51.0°F10.6°C 35.5°F1.9°C 57% 13.3 mph N21.4 kmh N 20.1 mph32.3 kmh 30.21 in1023.0 mb 0.00 in0.0 mm 0.00 in/hr0.0 mm/hr 0.01 in0.3 mm
03:10 PM 50.4°F10.2°C 34.5°F1.4°C 56% 11.0 mph NNW17.7 kmh NNW 19.8 mph31.9 kmh 30.21 in1023.0 mb 0.00 in0.0 mm 0.00 in/hr0.0 mm/hr 0.01 in0.3 mm
03:05 PM 50.0°F10.0°C 34.5°F1.4°C 57% 13.4 mph NNW21.6 kmh NNW 22.3 mph35.9 kmh 30.21 in1023.0 mb 0.00 in0.0 mm 0.00 in/hr0.0 mm/hr 0.01 in0.3 mm
03:00 PM 50.1°F10.1°C 34.6°F1.4°C 57% 13.6 mph N21.9 kmh N 22.3 mph35.9 kmh 30.20 in1022.7 mb 0.00 in0.0 mm 0.00 in/hr0.0 mm/hr 0.01 in0.3 mm
02:55 PM 50.1°F10.1°C 35.3°F1.8°C 59% 12.8 mph N20.6 kmh N 21.6 mph34.8 kmh 30.20 in1022.7 mb 0.00 in0.0 mm 0.00 in/hr0.0 mm/hr 0.01 in0.3 mm
02:50 PM 50.2°F10.1°C 35.8°F2.1°C 60% 15.0 mph NNW24.1 kmh NNW 27.5 mph44.3 kmh 30.20 in1022.7 mb 0.00 in0.0 mm 0.00 in/hr0.0 mm/hr 0.01 in0.3 mm
02:45 PM 50.2°F10.1°C 36.2°F2.3°C 61% 13.0 mph N20.9 kmh N 20.5 mph33.0 kmh 30.21 in1023.0 mb 0.00 in0.0 mm 0.00 in/hr0.0 mm/hr 0.01 in0.3 mm
02:40 PM 50.1°F10.1°C 36.4°F2.4°C 62% 12.7 mph N20.4 kmh N 22.6 mph36.4 kmh 30.21 in1023.0 mb 0.00 in0.0 mm 0.00 in/hr0.0 mm/hr 0.01 in0.3 mm
02:35 PM 50.0°F10.0°C 36.3°F2.4°C 62% 13.0 mph N20.9 kmh N 19.1 mph30.7 kmh 30.21 in1023.0 mb 0.00 in0.0 mm 0.00 in/hr0.0 mm/hr 0.01 in0.3 mm
02:30 PM 50.4°F10.2°C 36.7°F2.6°C 62% 11.2 mph NNW18.0 kmh NNW 18.6 mph29.9 kmh 30.21 in1023.0 mb 0.00 in0.0 mm 0.00 in/hr0.0 mm/hr 0.01 in0.3 mm
02:25 PM 50.9°F10.5°C 37.2°F2.9°C 62% 13.2 mph N21.2 kmh N 23.1 mph37.2 kmh 30.21 in1023.0 mb 0.00 in0.0 mm 0.00 in/hr0.0 mm/hr 0.01 in0.3 mm
02:20 PM 51.3°F10.7°C 38.0°F3.3°C 63% 11.3 mph NNW18.2 kmh NNW 20.8 mph33.5 kmh 30.21 in1023.0 mb 0.00 in0.0 mm 0.00 in/hr0.0 mm/hr 0.01 in0.3 mm
02:15 PM 51.6°F10.9°C 38.3°F3.5°C 63% 9.6 mph N15.4 kmh N 15.4 mph24.8 kmh 30.21 in1023.0 mb 0.00 in0.0 mm 0.00 in/hr0.0 mm/hr 0.01 in0.3 mm
02:10 PM 51.7°F10.9°C 38.3°F3.5°C 63% 10.7 mph NNW17.2 kmh NNW 19.3 mph31.1 kmh 30.21 in1023.0 mb 0.00 in0.0 mm 0.00 in/hr0.0 mm/hr 0.01 in0.3 mm
02:05 PM 51.7°F10.9°C 38.8°F3.8°C 64% 10.2 mph NNW16.4 kmh NNW 20.5 mph33.0 kmh 30.21 in1023.0 mb 0.00 in0.0 mm 0.00 in/hr0.0 mm/hr 0.01 in0.3 mm
02:00 PM 51.9°F11.1°C 38.9°F3.8°C 64% 11.6 mph N18.7 kmh N 21.8 mph35.1 kmh 30.20 in1022.7 mb 0.00 in0.0 mm 0.00 in/hr0.0 mm/hr 0.01 in0.3 mm
01:55 PM 52.0°F11.1°C 39.4°F4.1°C 65% 11.9 mph NNW19.2 kmh NNW 20.3 mph32.7 kmh 30.21 in1023.0 mb 0.00 in0.0 mm 0.00 in/hr0.0 mm/hr 0.01 in0.3 mm
01:50 PM 51.7°F10.9°C 39.5°F4.2°C 66% 12.8 mph N20.6 kmh N 21.1 mph34.0 kmh 30.21 in1023.0 mb 0.00 in0.0 mm 0.00 in/hr0.0 mm/hr 0.01 in0.3 mm
01:45 PM 51.5°F10.8°C 39.9°F4.4°C 68% 12.9 mph N20.8 kmh N 24.8 mph39.9 kmh 30.21 in1023.0 mb 0.00 in0.0 mm 0.00 in/hr0.0 mm/hr 0.01 in0.3 mm
01:40 PM 50.9°F10.5°C 39.7°F4.3°C 69% 12.9 mph NNW20.8 kmh NNW 27.5 mph44.3 kmh 30.20 in1022.7 mb 0.00 in0.0 mm 0.00 in/hr0.0 mm/hr 0.01 in0.3 mm
01:35 PM 50.1°F10.1°C 39.3°F4.1°C 70% 9.3 mph N15.0 kmh N 18.6 mph29.9 kmh 30.21 in1023.0 mb 0.00 in0.0 mm 0.00 in/hr0.0 mm/hr 0.01 in0.3 mm
01:30 PM 49.6°F9.8°C 38.8°F3.8°C 70% 13.0 mph N20.9 kmh N 23.3 mph37.5 kmh 30.21 in1023.0 mb 0.00 in0.0 mm 0.00 in/hr0.0 mm/hr 0.01 in0.3 mm
01:25 PM 49.1°F9.5°C 38.7°F3.7°C 71% 9.9 mph NNW15.9 kmh NNW 20.3 mph32.7 kmh 30.20 in1022.7 mb 0.00 in0.0 mm 0.00 in/hr0.0 mm/hr 0.01 in0.3 mm
01:20 PM 48.8°F9.3°C 38.7°F3.7°C 72% 9.6 mph N15.4 kmh N 22.3 mph35.9 kmh 30.20 in1022.7 mb 0.00 in0.0 mm 0.00 in/hr0.0 mm/hr 0.01 in0.3 mm
01:15 PM 48.4°F9.1°C 38.3°F3.5°C 72% 11.9 mph NNW19.2 kmh NNW 21.1 mph34.0 kmh 30.20 in1022.7 mb 0.00 in0.0 mm 0.00 in/hr0.0 mm/hr 0.01 in0.3 mm
01:10 PM 48.3°F9.1°C 38.2°F3.4°C 72% 12.1 mph N19.5 kmh N 19.3 mph31.1 kmh 30.20 in1022.7 mb 0.00 in0.0 mm 0.00 in/hr0.0 mm/hr 0.01 in0.3 mm
01:05 PM 48.6°F9.2°C 38.5°F3.6°C 72% 8.4 mph N13.5 kmh N 13.8 mph22.2 kmh 30.20 in1022.7 mb 0.00 in0.0 mm 0.00 in/hr0.0 mm/hr 0.01 in0.3 mm
01:00 PM 49.2°F9.6°C 39.5°F4.2°C 73% 11.0 mph NNW17.7 kmh NNW 18.6 mph29.9 kmh 30.20 in1022.7 mb 0.00 in0.0 mm 0.00 in/hr0.0 mm/hr 0.01 in0.3 mm
12:55 PM 49.3°F9.6°C 40.3°F4.6°C 75% 12.1 mph N19.5 kmh N 20.5 mph33.0 kmh 30.20 in1022.7 mb 0.00 in0.0 mm 0.00 in/hr0.0 mm/hr 0.01 in0.3 mm
12:50 PM 48.8°F9.3°C 39.8°F4.3°C 75% 11.8 mph N19.0 kmh N 18.0 mph29.0 kmh 30.20 in1022.7 mb 0.00 in0.0 mm 0.00 in/hr0.0 mm/hr 0.01 in0.3 mm
12:45 PM 48.2°F9.0°C 39.2°F4.0°C 75% 10.2 mph NNW16.4 kmh NNW 17.3 mph27.8 kmh 30.20 in1022.7 mb 0.00 in0.0 mm 0.00 in/hr0.0 mm/hr 0.01 in0.3 mm
12:40 PM 47.8°F8.8°C 38.8°F3.8°C 75% 8.1 mph N13.0 kmh N 15.4 mph24.8 kmh 30.21 in1023.0 mb 0.00 in0.0 mm 0.00 in/hr0.0 mm/hr 0.01 in0.3 mm
12:35 PM 47.6°F8.7°C 38.6°F3.7°C 75% 9.2 mph NNW14.8 kmh NNW 14.5 mph23.3 kmh 30.20 in1022.7 mb 0.00 in0.0 mm 0.00 in/hr0.0 mm/hr 0.01 in0.3 mm
12:30 PM 47.7°F8.7°C 39.0°F3.9°C 76% 9.3 mph NNW15.0 kmh NNW 16.6 mph26.7 kmh 30.20 in1022.7 mb 0.00 in0.0 mm 0.00 in/hr0.0 mm/hr 0.01 in0.3 mm
12:25 PM 47.8°F8.8°C 38.8°F3.8°C 75% 8.7 mph NNW14.0 kmh NNW 15.1 mph24.3 kmh 30.20 in1022.7 mb 0.00 in0.0 mm 0.00 in/hr0.0 mm/hr 0.01 in0.3 mm
12:20 PM 47.8°F8.8°C 38.8°F3.8°C 75% 9.1 mph N14.6 kmh N 15.4 mph24.8 kmh 30.20 in1022.7 mb 0.00 in0.0 mm 0.00 in/hr0.0 mm/hr 0.01 in0.3 mm
12:15 PM 47.4°F8.6°C 38.8°F3.8°C 76% 11.4 mph N18.3 kmh N 18.3 mph29.5 kmh 30.20 in1022.7 mb 0.00 in0.0 mm 0.00 in/hr0.0 mm/hr 0.01 in0.3 mm
12:10 PM 46.6°F8.1°C 38.3°F3.5°C 77% 12.8 mph NNW20.6 kmh NNW 25.6 mph41.2 kmh 30.20 in1022.7 mb 0.00 in0.0 mm 0.00 in/hr0.0 mm/hr 0.01 in0.3 mm
12:05 PM 46.1°F7.8°C 37.4°F3.0°C 76% 9.0 mph N14.5 kmh N 16.1 mph25.9 kmh 30.20 in1022.7 mb 0.00 in0.0 mm 0.00 in/hr0.0 mm/hr 0.01 in0.3 mm
12:00 PM 45.9°F7.7°C 37.2°F2.9°C 76% 10.1 mph NNW16.3 kmh NNW 19.6 mph31.5 kmh 30.20 in1022.7 mb 0.00 in0.0 mm 0.00 in/hr0.0 mm/hr 0.01 in0.3 mm
11:55 AM 46.0°F7.8°C 37.7°F3.2°C 77% 10.0 mph N16.1 kmh N 17.3 mph27.8 kmh 30.20 in1022.7 mb 0.00 in0.0 mm 0.00 in/hr0.0 mm/hr 0.01 in0.3 mm
11:50 AM 46.4°F8.0°C 38.1°F3.4°C 77% 10.5 mph NNW16.9 kmh NNW 18.0 mph29.0 kmh 30.20 in1022.7 mb 0.00 in0.0 mm 0.00 in/hr0.0 mm/hr 0.01 in0.3 mm
11:45 AM 46.8°F8.2°C 38.5°F3.6°C 77% 10.4 mph NNW16.7 kmh NNW 18.0 mph29.0 kmh 30.20 in1022.7 mb 0.00 in0.0 mm 0.00 in/hr0.0 mm/hr 0.01 in0.3 mm
11:40 AM 47.1°F8.4°C 39.2°F4.0°C 78% 10.2 mph N16.4 kmh N 19.6 mph31.5 kmh 30.19 in1022.4 mb 0.00 in0.0 mm 0.00 in/hr0.0 mm/hr 0.01 in0.3 mm
11:35 AM 47.3°F8.5°C 40.4°F4.7°C 81% 11.2 mph NNW18.0 kmh NNW 18.3 mph29.5 kmh 30.19 in1022.4 mb 0.00 in0.0 mm 0.00 in/hr0.0 mm/hr 0.01 in0.3 mm
11:30 AM 47.7°F8.7°C 42.6°F5.9°C 86% 8.7 mph NW14.0 kmh NW 15.5 mph24.9 kmh 30.19 in1022.4 mb 0.00 in0.0 mm 0.00 in/hr0.0 mm/hr 0.01 in0.3 mm
11:25 AM 47.6°F8.7°C 43.7°F6.5°C 89% 9.0 mph NNW14.5 kmh NNW 15.1 mph24.3 kmh 30.19 in1022.4 mb 0.00 in0.0 mm 0.00 in/hr0.0 mm/hr 0.01 in0.3 mm
11:20 AM 47.2°F8.4°C 43.9°F6.6°C 91% 6.9 mph NNW11.1 kmh NNW 11.6 mph18.7 kmh 30.19 in1022.4 mb 0.00 in0.0 mm 0.00 in/hr0.0 mm/hr 0.01 in0.3 mm
11:15 AM 46.7°F8.2°C 44.2°F6.8°C 93% 6.9 mph NW11.1 kmh NW 20.3 mph32.7 kmh 30.19 in1022.4 mb 0.00 in0.0 mm 0.00 in/hr0.0 mm/hr 0.01 in0.3 mm
11:10 AM 46.1°F7.8°C 43.2°F6.2°C 92% 5.9 mph N9.5 kmh N 10.6 mph17.1 kmh 30.19 in1022.4 mb 0.00 in0.0 mm 0.00 in/hr0.0 mm/hr 0.01 in0.3 mm
11:05 AM 45.2°F7.3°C 41.9°F5.5°C 91% 6.3 mph N10.1 kmh N 10.3 mph16.6 kmh 30.19 in1022.4 mb 0.00 in0.0 mm 0.00 in/hr0.0 mm/hr 0.01 in0.3 mm
11:00 AM 44.2°F6.8°C 40.9°F4.9°C 91% 5.9 mph N9.5 kmh N 11.9 mph19.2 kmh 30.19 in1022.4 mb 0.00 in0.0 mm 0.00 in/hr0.0 mm/hr 0.01 in0.3 mm
10:55 AM 43.6°F6.4°C 40.4°F4.7°C 91% 5.4 mph N8.7 kmh N 8.9 mph14.3 kmh 30.20 in1022.7 mb 0.00 in0.0 mm 0.00 in/hr0.0 mm/hr 0.01 in0.3 mm
10:50 AM 43.2°F6.2°C 40.7°F4.8°C 93% 6.7 mph NNW10.8 kmh NNW 12.4 mph20.0 kmh 30.20 in1022.7 mb 0.00 in0.0 mm 0.00 in/hr0.0 mm/hr 0.01 in0.3 mm
10:45 AM 42.8°F6.0°C 40.7°F4.8°C 94% 8.0 mph NNW12.9 kmh NNW 14.1 mph22.7 kmh 30.20 in1022.7 mb 0.00 in0.0 mm 0.00 in/hr0.0 mm/hr 0.01 in0.3 mm
10:40 AM 42.1°F5.6°C 40.3°F4.6°C 95% 8.1 mph NNW13.0 kmh NNW 13.0 mph20.9 kmh 30.20 in1022.7 mb 0.00 in0.0 mm 0.00 in/hr0.0 mm/hr 0.01 in0.3 mm
10:35 AM 41.3°F5.2°C 39.5°F4.2°C 95% 6.1 mph NW9.8 kmh NW 10.3 mph16.6 kmh 30.20 in1022.7 mb 0.00 in0.0 mm 0.00 in/hr0.0 mm/hr 0.01 in0.3 mm
10:30 AM 40.8°F4.9°C 39.0°F3.9°C 95% 3.1 mph NNW5.0 kmh NNW 5.5 mph8.9 kmh 30.20 in1022.7 mb 0.00 in0.0 mm 0.00 in/hr0.0 mm/hr 0.01 in0.3 mm
10:25 AM 40.7°F4.8°C 38.9°F3.8°C 95% 4.1 mph NW6.6 kmh NW 7.2 mph11.6 kmh 30.20 in1022.7 mb 0.00 in0.0 mm 0.00 in/hr0.0 mm/hr 0.01 in0.3 mm
10:20 AM 40.4°F4.7°C 38.6°F3.7°C 95% 5.2 mph NNW8.4 kmh NNW 8.9 mph14.3 kmh 30.20 in1022.7 mb 0.00 in0.0 mm 0.00 in/hr0.0 mm/hr 0.01 in0.3 mm
10:15 AM 40.3°F4.6°C 38.5°F3.6°C 95% 4.7 mph NW7.6 kmh NW 8.5 mph13.7 kmh 30.21 in1023.0 mb 0.00 in0.0 mm 0.00 in/hr0.0 mm/hr 0.01 in0.3 mm
10:10 AM 40.1°F4.5°C 38.3°F3.5°C 95% 4.1 mph NW6.6 kmh NW 6.2 mph10.0 kmh 30.20 in1022.7 mb 0.00 in0.0 mm 0.00 in/hr0.0 mm/hr 0.01 in0.3 mm
10:05 AM 39.7°F4.3°C 37.6°F3.1°C 94% 1.9 mph W3.1 kmh W 4.2 mph6.8 kmh 30.21 in1023.0 mb 0.00 in0.0 mm 0.00 in/hr0.0 mm/hr 0.01 in0.3 mm
10:00 AM 39.4°F4.1°C 36.9°F2.7°C 93% 1.5 mph NNW2.4 kmh NNW 4.2 mph6.8 kmh 30.20 in1022.7 mb 0.00 in0.0 mm 0.00 in/hr0.0 mm/hr 0.01 in0.3 mm
09:55 AM 39.2°F4.0°C 36.7°F2.6°C 93% 1.6 mph WNW2.6 kmh WNW 4.4 mph7.1 kmh 30.20 in1022.7 mb 0.00 in0.0 mm 0.00 in/hr0.0 mm/hr 0.01 in0.3 mm
09:50 AM 39.3°F4.1°C 36.7°F2.6°C 93% 2.6 mph NNW4.2 kmh NNW 5.0 mph8.0 kmh 30.20 in1022.7 mb 0.00 in0.0 mm 0.00 in/hr0.0 mm/hr 0.01 in0.3 mm
09:45 AM 39.3°F4.1°C 36.4°F2.4°C 92% 3.3 mph WSW5.3 kmh WSW 5.5 mph8.9 kmh 30.21 in1023.0 mb 0.00 in0.0 mm 0.00 in/hr0.0 mm/hr 0.01 in0.3 mm
09:40 AM 39.2°F4.0°C 35.9°F2.2°C 91% 2.2 mph NNW3.5 kmh NNW 5.5 mph8.9 kmh 30.21 in1023.0 mb 0.00 in0.0 mm 0.00 in/hr0.0 mm/hr 0.00 in0.0 mm
09:35 AM 39.1°F3.9°C 35.5°F1.9°C 90% 2.6 mph NW4.2 kmh NW 6.0 mph9.7 kmh 30.21 in1023.0 mb 0.00 in0.0 mm 0.00 in/hr0.0 mm/hr 0.00 in0.0 mm
09:30 AM 39.2°F4.0°C 35.2°F1.8°C 89% 2.7 mph NW4.3 kmh NW 7.2 mph11.6 kmh 30.21 in1023.0 mb 0.00 in0.0 mm 0.00 in/hr0.0 mm/hr 0.00 in0.0 mm
09:25 AM 39.2°F4.0°C 34.9°F1.6°C 88% 1.8 mph NNW2.9 kmh NNW 4.2 mph6.8 kmh 30.21 in1023.0 mb 0.00 in0.0 mm 0.00 in/hr0.0 mm/hr 0.00 in0.0 mm
09:20 AM 39.3°F4.1°C 35.0°F1.7°C 88% 3.3 mph NNW5.3 kmh NNW 7.2 mph11.6 kmh 30.21 in1023.0 mb 0.00 in0.0 mm 0.00 in/hr0.0 mm/hr 0.00 in0.0 mm
09:15 AM 39.3°F4.1°C 34.9°F1.6°C 88% 4.9 mph NW7.9 kmh NW 8.4 mph13.5 kmh 30.21 in1023.0 mb 0.00 in0.0 mm 0.00 in/hr0.0 mm/hr 0.00 in0.0 mm
09:10 AM 39.2°F4.0°C 34.9°F1.6°C 88% 4.0 mph NW6.4 kmh NW 7.2 mph11.6 kmh 30.21 in1023.0 mb 0.00 in0.0 mm 0.00 in/hr0.0 mm/hr 0.00 in0.0 mm
09:05 AM 39.2°F4.0°C 35.2°F1.8°C 89% 3.5 mph WNW5.6 kmh WNW 6.0 mph9.7 kmh 30.21 in1023.0 mb 0.00 in0.0 mm 0.00 in/hr0.0 mm/hr 0.00 in0.0 mm
09:00 AM 39.4°F4.1°C 35.4°F1.9°C 89% 2.8 mph NNW4.5 kmh NNW 5.4 mph8.7 kmh 30.21 in1023.0 mb 0.00 in0.0 mm 0.00 in/hr0.0 mm/hr 0.00 in0.0 mm
08:55 AM 39.5°F4.2°C 35.5°F1.9°C 89% 4.0 mph WNW6.4 kmh WNW 6.5 mph10.5 kmh 30.21 in1023.0 mb 0.00 in0.0 mm 0.00 in/hr0.0 mm/hr 0.00 in0.0 mm
08:50 AM 39.3°F4.1°C 35.4°F1.9°C 89% 2.7 mph NNW4.3 kmh NNW 6.5 mph10.5 kmh 30.21 in1023.0 mb 0.00 in0.0 mm 0.00 in/hr0.0 mm/hr 0.00 in0.0 mm
08:45 AM 39.3°F4.1°C 35.3°F1.8°C 89% 2.9 mph W4.7 kmh W 6.2 mph10.0 kmh 30.21 in1023.0 mb 0.00 in0.0 mm 0.00 in/hr0.0 mm/hr 0.00 in0.0 mm
08:40 AM 39.4°F4.1°C 35.8°F2.1°C 90% 2.3 mph WNW3.7 kmh WNW 5.4 mph8.7 kmh 30.21 in1023.0 mb 0.00 in0.0 mm 0.00 in/hr0.0 mm/hr 0.00 in0.0 mm
08:35 AM 39.2°F4.0°C 36.0°F2.2°C 91% 3.5 mph WNW5.6 kmh WNW 6.2 mph10.0 kmh 30.20 in1022.7 mb 0.00 in0.0 mm 0.00 in/hr0.0 mm/hr 0.00 in0.0 mm
08:30 AM 39.1°F3.9°C 36.2°F2.3°C 92% 3.1 mph NW5.0 kmh NW 8.5 mph13.7 kmh 30.20 in1022.7 mb 0.00 in0.0 mm 0.00 in/hr0.0 mm/hr 0.00 in0.0 mm
08:25 AM 39.0°F3.9°C 36.9°F2.7°C 94% 3.0 mph NW4.8 kmh NW 5.0 mph8.0 kmh 30.20 in1022.7 mb 0.00 in0.0 mm 0.00 in/hr0.0 mm/hr 0.00 in0.0 mm
08:20 AM 38.9°F3.8°C 37.1°F2.8°C 95% 2.4 mph WNW3.9 kmh WNW 6.0 mph9.7 kmh 30.20 in1022.7 mb 0.00 in0.0 mm 0.00 in/hr0.0 mm/hr 0.00 in0.0 mm
08:15 AM 38.7°F3.7°C 36.9°F2.7°C 95% 4.8 mph SW7.7 kmh SW 7.7 mph12.4 kmh 30.20 in1022.7 mb 0.00 in0.0 mm 0.00 in/hr0.0 mm/hr 0.00 in0.0 mm
08:10 AM 38.7°F3.7°C 36.9°F2.7°C 95% 4.7 mph WSW7.6 kmh WSW 8.1 mph13.0 kmh 30.20 in1022.7 mb 0.00 in0.0 mm 0.00 in/hr0.0 mm/hr 0.00 in0.0 mm
08:05 AM 38.7°F3.7°C 36.9°F2.7°C 95% 5.0 mph WSW8.0 kmh WSW 8.1 mph13.0 kmh 30.20 in1022.7 mb 0.00 in0.0 mm 0.00 in/hr0.0 mm/hr 0.00 in0.0 mm
08:00 AM 38.1°F3.4°C 36.3°F2.4°C 95% 2.3 mph SW3.7 kmh SW 5.4 mph8.7 kmh 30.20 in1022.7 mb 0.00 in0.0 mm 0.00 in/hr0.0 mm/hr 0.00 in0.0 mm
07:55 AM 37.1°F2.8°C 35.3°F1.8°C 95% 3.3 mph WSW5.3 kmh WSW 5.5 mph8.9 kmh 30.21 in1023.0 mb 0.00 in0.0 mm 0.00 in/hr0.0 mm/hr 0.00 in0.0 mm
07:50 AM 36.4°F2.4°C 34.6°F1.4°C 95% 2.5 mph WSW4.0 kmh WSW 7.0 mph11.3 kmh 30.20 in1022.7 mb 0.00 in0.0 mm 0.00 in/hr0.0 mm/hr 0.00 in0.0 mm
07:45 AM 36.2°F2.3°C 34.4°F1.3°C 95% 3.5 mph SW5.6 kmh SW 5.7 mph9.2 kmh 30.20 in1022.7 mb 0.00 in0.0 mm 0.00 in/hr0.0 mm/hr 0.00 in0.0 mm
07:40 AM 36.0°F2.2°C 34.2°F1.2°C 95% 3.3 mph SW5.3 kmh SW 7.0 mph11.3 kmh 30.20 in1022.7 mb 0.00 in0.0 mm 0.00 in/hr0.0 mm/hr 0.00 in0.0 mm
07:35 AM 35.8°F2.1°C 34.3°F1.3°C 96% 3.3 mph SW5.3 kmh SW 6.5 mph10.5 kmh 30.20 in1022.7 mb 0.00 in0.0 mm 0.00 in/hr0.0 mm/hr 0.00 in0.0 mm
07:30 AM 35.7°F2.1°C 34.2°F1.2°C 96% 2.9 mph SW4.7 kmh SW 5.5 mph8.9 kmh 30.20 in1022.7 mb 0.00 in0.0 mm 0.00 in/hr0.0 mm/hr 0.00 in0.0 mm
07:25 AM 35.5°F1.9°C 34.1°F1.2°C 96% 2.6 mph SSW4.2 kmh SSW 4.9 mph7.9 kmh 30.20 in1022.7 mb 0.00 in0.0 mm 0.00 in/hr0.0 mm/hr 0.00 in0.0 mm
07:20 AM 35.4°F1.9°C 33.9°F1.1°C 96% 3.1 mph SW5.0 kmh SW 5.4 mph8.7 kmh 30.20 in1022.7 mb 0.00 in0.0 mm 0.00 in/hr0.0 mm/hr 0.00 in0.0 mm
07:15 AM 35.2°F1.8°C 33.7°F0.9°C 96% 3.0 mph SSW4.8 kmh SSW 4.9 mph7.9 kmh 30.20 in1022.7 mb 0.00 in0.0 mm 0.00 in/hr0.0 mm/hr 0.00 in0.0 mm
07:10 AM 34.9°F1.6°C 33.5°F0.8°C 96% 2.5 mph WSW4.0 kmh WSW 4.4 mph7.1 kmh 30.20 in1022.7 mb 0.00 in0.0 mm 0.00 in/hr0.0 mm/hr 0.00 in0.0 mm
07:05 AM 34.7°F1.5°C 33.3°F0.7°C 96% 2.2 mph SW3.5 kmh SW 3.5 mph5.6 kmh 30.20 in1022.7 mb 0.00 in0.0 mm 0.00 in/hr0.0 mm/hr 0.00 in0.0 mm
07:00 AM 34.7°F1.5°C 33.2°F0.7°C 96% 1.2 mph SSW1.9 kmh SSW 3.7 mph6.0 kmh 30.20 in1022.7 mb 0.00 in0.0 mm 0.00 in/hr0.0 mm/hr 0.00 in0.0 mm
06:55 AM 34.6°F1.4°C 33.1°F0.6°C 96% 0.9 mph WSW1.4 kmh WSW 2.7 mph4.3 kmh 30.20 in1022.7 mb 0.00 in0.0 mm 0.00 in/hr0.0 mm/hr 0.00 in0.0 mm
06:50 AM 34.4°F1.3°C 32.9°F0.5°C 96% Calm Calm 1.1 mph1.8 kmh 30.20 in1022.7 mb 0.00 in0.0 mm 0.00 in/hr0.0 mm/hr 0.00 in0.0 mm
06:45 AM 34.2°F1.2°C 32.8°F0.4°C 96% 0.7 mph WSW1.1 kmh WSW 2.7 mph4.3 kmh 30.20 in1022.7 mb 0.00 in0.0 mm 0.00 in/hr0.0 mm/hr 0.00 in0.0 mm
06:40 AM 34.0°F1.1°C 32.9°F0.5°C 97% 2.6 mph WSW4.2 kmh WSW 4.0 mph6.4 kmh 30.19 in1022.4 mb 0.00 in0.0 mm 0.00 in/hr0.0 mm/hr 0.00 in0.0 mm
06:35 AM 33.7°F0.9°C 32.6°F0.3°C 97% 1.5 mph SSW2.4 kmh SSW 3.2 mph5.1 kmh 30.19 in1022.4 mb 0.00 in0.0 mm 0.00 in/hr0.0 mm/hr 0.00 in0.0 mm
06:30 AM 33.6°F0.9°C 32.5°F0.3°C 97% 1.2 mph SW1.9 kmh SW 3.7 mph6.0 kmh 30.20 in1022.7 mb 0.00 in0.0 mm 0.00 in/hr0.0 mm/hr 0.00 in0.0 mm
06:25 AM 33.3°F0.7°C 32.2°F0.1°C 97% 2.2 mph SSW3.5 kmh SSW 3.5 mph5.6 kmh 30.20 in1022.7 mb 0.00 in0.0 mm 0.00 in/hr0.0 mm/hr 0.00 in0.0 mm
06:20 AM 33.1°F0.6°C 32.0°F0.0°C 97% 1.2 mph SSW1.9 kmh SSW 2.6 mph4.2 kmh 30.20 in1022.7 mb 0.00 in0.0 mm 0.00 in/hr0.0 mm/hr 0.00 in0.0 mm
06:15 AM 32.6°F0.3°C 31.5°F-0.3°C 97% 2.1 mph SSW3.4 kmh SSW 2.7 mph4.3 kmh 30.20 in1022.7 mb 0.00 in0.0 mm 0.00 in/hr0.0 mm/hr 0.00 in0.0 mm
06:10 AM 32.2°F0.1°C 31.1°F-0.5°C 97% 3.6 mph S5.8 kmh S 5.0 mph8.0 kmh 30.20 in1022.7 mb 0.00 in0.0 mm 0.00 in/hr0.0 mm/hr 0.00 in0.0 mm
06:05 AM 31.9°F-0.1°C 30.8°F-0.7°C 97% 2.8 mph SSW4.5 kmh SSW 3.5 mph5.6 kmh 30.21 in1023.0 mb 0.00 in0.0 mm 0.00 in/hr0.0 mm/hr 0.00 in0.0 mm
06:00 AM 31.6°F-0.2°C 30.5°F-0.8°C 97% Calm Calm -- 30.21 in1023.0 mb 0.00 in0.0 mm 0.00 in/hr0.0 mm/hr 0.00 in0.0 mm
05:55 AM 31.4°F-0.3°C 30.3°F-0.9°C 97% Calm Calm -- 30.21 in1023.0 mb 0.00 in0.0 mm 0.00 in/hr0.0 mm/hr 0.00 in0.0 mm
05:50 AM 31.3°F-0.4°C 30.6°F-0.8°C 98% 0.4 mph WSW0.6 kmh WSW 1.6 mph2.6 kmh 30.21 in1023.0 mb 0.00 in0.0 mm 0.00 in/hr0.0 mm/hr 0.00 in0.0 mm
05:45 AM 31.0°F-0.6°C 29.9°F-1.2°C 97% Calm Calm 1.1 mph1.8 kmh 30.21 in1023.0 mb 0.00 in0.0 mm 0.00 in/hr0.0 mm/hr 0.00 in0.0 mm
05:40 AM 30.7°F-0.7°C 29.6°F-1.3°C 97% 0.3 mph WSW0.5 kmh WSW 1.3 mph2.1 kmh 30.21 in1023.0 mb 0.00 in0.0 mm 0.00 in/hr0.0 mm/hr 0.00 in0.0 mm
05:35 AM 30.6°F-0.8°C 29.5°F-1.4°C 97% Calm Calm -- 30.20 in1022.7 mb 0.00 in0.0 mm 0.00 in/hr0.0 mm/hr 0.00 in0.0 mm
05:30 AM 30.6°F-0.8°C 29.5°F-1.4°C 97% Calm Calm -- 30.21 in1023.0 mb 0.00 in0.0 mm 0.00 in/hr0.0 mm/hr 0.00 in0.0 mm
05:25 AM 30.6°F-0.8°C 29.5°F-1.4°C 97% Calm Calm -- 30.21 in1023.0 mb 0.00 in0.0 mm 0.00 in/hr0.0 mm/hr 0.00 in0.0 mm
05:20 AM 30.7°F-0.7°C 29.6°F-1.3°C 97% Calm Calm -- 30.21 in1023.0 mb 0.00 in0.0 mm 0.00 in/hr0.0 mm/hr 0.00 in0.0 mm
05:15 AM 30.9°F-0.6°C 29.8°F-1.2°C 97% Calm Calm -- 30.21 in1023.0 mb 0.00 in0.0 mm 0.00 in/hr0.0 mm/hr 0.00 in0.0 mm
05:10 AM 31.0°F-0.6°C 29.9°F-1.2°C 97% Calm Calm -- 30.21 in1023.0 mb 0.00 in0.0 mm 0.00 in/hr0.0 mm/hr 0.00 in0.0 mm
05:05 AM 30.6°F-0.8°C 29.5°F-1.4°C 97% Calm Calm -- 30.21 in1023.0 mb 0.00 in0.0 mm 0.00 in/hr0.0 mm/hr 0.00 in0.0 mm
05:00 AM 30.3°F-0.9°C 29.2°F-1.6°C 97% Calm Calm 1.1 mph1.8 kmh 30.21 in1023.0 mb 0.00 in0.0 mm 0.00 in/hr0.0 mm/hr 0.00 in0.0 mm
04:55 AM 30.1°F-1.1°C 29.0°F-1.7°C 97% Calm Calm -- 30.21 in1023.0 mb 0.00 in0.0 mm 0.00 in/hr0.0 mm/hr 0.00 in0.0 mm
04:50 AM 30.0°F-1.1°C 28.9°F-1.7°C 97% Calm Calm -- 30.21 in1023.0 mb 0.00 in0.0 mm 0.00 in/hr0.0 mm/hr 0.00 in0.0 mm
04:45 AM 29.7°F-1.3°C 28.6°F-1.9°C 97% Calm Calm 1.1 mph1.8 kmh 30.21 in1023.0 mb 0.00 in0.0 mm 0.00 in/hr0.0 mm/hr 0.00 in0.0 mm
04:40 AM 29.3°F-1.5°C 28.2°F-2.1°C 97% Calm Calm -- 30.21 in1023.0 mb 0.00 in0.0 mm 0.00 in/hr0.0 mm/hr 0.00 in0.0 mm
04:35 AM 29.0°F-1.7°C 27.5°F-2.5°C 96% 0.2 mph WSW0.3 kmh WSW 1.6 mph2.6 kmh 30.21 in1023.0 mb 0.00 in0.0 mm 0.00 in/hr0.0 mm/hr 0.00 in0.0 mm
04:30 AM 28.8°F-1.8°C 27.3°F-2.6°C 96% Calm Calm -- 30.21 in1023.0 mb 0.00 in0.0 mm 0.00 in/hr0.0 mm/hr 0.00 in0.0 mm
04:25 AM 28.6°F-1.9°C 27.1°F-2.7°C 96% Calm Calm -- 30.21 in1023.0 mb 0.00 in0.0 mm 0.00 in/hr0.0 mm/hr 0.00 in0.0 mm
04:20 AM 28.5°F-1.9°C 27.1°F-2.7°C 96% Calm Calm -- 30.21 in1023.0 mb 0.00 in0.0 mm 0.00 in/hr0.0 mm/hr 0.00 in0.0 mm
04:15 AM 28.5°F-1.9°C 27.1°F-2.7°C 96% Calm Calm -- 30.21 in1023.0 mb 0.00 in0.0 mm 0.00 in/hr0.0 mm/hr 0.00 in0.0 mm
04:10 AM 28.3°F-2.1°C 26.5°F-3.1°C 95% Calm Calm -- 30.22 in1023.4 mb 0.00 in0.0 mm 0.00 in/hr0.0 mm/hr 0.00 in0.0 mm
04:05 AM 28.3°F-2.1°C 26.5°F-3.1°C 95% Calm Calm -- 30.21 in1023.0 mb 0.00 in0.0 mm 0.00 in/hr0.0 mm/hr 0.00 in0.0 mm
04:00 AM 28.5°F-1.9°C 26.7°F-2.9°C 95% Calm Calm -- 30.22 in1023.4 mb 0.00 in0.0 mm 0.00 in/hr0.0 mm/hr 0.00 in0.0 mm
03:55 AM 28.8°F-1.8°C 27.0°F-2.8°C 95% Calm Calm -- 30.22 in1023.4 mb 0.00 in0.0 mm 0.00 in/hr0.0 mm/hr 0.00 in0.0 mm
03:50 AM 28.8°F-1.8°C 26.6°F-3.0°C 94% Calm Calm -- 30.22 in1023.4 mb 0.00 in0.0 mm 0.00 in/hr0.0 mm/hr 0.00 in0.0 mm
03:45 AM 28.8°F-1.8°C 26.6°F-3.0°C 94% Calm Calm -- 30.22 in1023.4 mb 0.00 in0.0 mm 0.00 in/hr0.0 mm/hr 0.00 in0.0 mm
03:40 AM 29.0°F-1.7°C 26.9°F-2.8°C 94% Calm Calm -- 30.22 in1023.4 mb 0.00 in0.0 mm 0.00 in/hr0.0 mm/hr 0.00 in0.0 mm
03:35 AM 29.1°F-1.6°C 26.6°F-3.0°C 93% Calm Calm -- 30.23 in1023.7 mb 0.00 in0.0 mm 0.00 in/hr0.0 mm/hr 0.00 in0.0 mm
03:30 AM 29.2°F-1.6°C 26.7°F-2.9°C 93% Calm Calm -- 30.23 in1023.7 mb 0.00 in0.0 mm 0.00 in/hr0.0 mm/hr 0.00 in0.0 mm
03:25 AM 29.4°F-1.4°C 26.9°F-2.8°C 93% Calm Calm -- 30.23 in1023.7 mb 0.00 in0.0 mm 0.00 in/hr0.0 mm/hr 0.00 in0.0 mm
03:20 AM 29.7°F-1.3°C 26.8°F-2.9°C 92% Calm Calm -- 30.23 in1023.7 mb 0.00 in0.0 mm 0.00 in/hr0.0 mm/hr 0.00 in0.0 mm
03:15 AM 30.0°F-1.1°C 27.1°F-2.7°C 92% Calm Calm -- 30.23 in1023.7 mb 0.00 in0.0 mm 0.00 in/hr0.0 mm/hr 0.00 in0.0 mm
03:10 AM 30.2°F-1.0°C 27.3°F-2.6°C 92% Calm Calm -- 30.23 in1023.7 mb 0.00 in0.0 mm 0.00 in/hr0.0 mm/hr 0.00 in0.0 mm
03:05 AM 30.4°F-0.9°C 27.5°F-2.5°C 92% Calm Calm -- 30.23 in1023.7 mb 0.00 in0.0 mm 0.00 in/hr0.0 mm/hr 0.00 in0.0 mm
03:00 AM 30.8°F-0.7°C 27.6°F-2.4°C 91% Calm Calm -- 30.24 in1024.0 mb 0.00 in0.0 mm 0.00 in/hr0.0 mm/hr 0.00 in0.0 mm
02:55 AM 31.1°F-0.5°C 27.5°F-2.5°C 90% Calm Calm -- 30.24 in1024.0 mb 0.00 in0.0 mm 0.00 in/hr0.0 mm/hr 0.00 in0.0 mm
02:50 AM 31.3°F-0.4°C 27.3°F-2.6°C 89% 0.3 mph WSW0.5 kmh WSW 1.6 mph2.6 kmh 30.25 in1024.4 mb 0.00 in0.0 mm 0.00 in/hr0.0 mm/hr 0.00 in0.0 mm
02:45 AM 31.7°F-0.2°C 27.4°F-2.6°C 88% Calm Calm -- 30.25 in1024.4 mb 0.00 in0.0 mm 0.00 in/hr0.0 mm/hr 0.00 in0.0 mm
02:40 AM 32.3°F0.2°C 27.9°F-2.3°C 88% Calm Calm -- 30.25 in1024.4 mb 0.00 in0.0 mm 0.00 in/hr0.0 mm/hr 0.00 in0.0 mm
02:35 AM 32.8°F0.4°C 28.1°F-2.2°C 87% 0.1 mph WSW0.2 kmh WSW 1.6 mph2.6 kmh 30.25 in1024.4 mb 0.00 in0.0 mm 0.00 in/hr0.0 mm/hr 0.00 in0.0 mm
02:30 AM 33.3°F0.7°C 28.6°F-1.9°C 87% Calm Calm -- 30.25 in1024.4 mb 0.00 in0.0 mm 0.00 in/hr0.0 mm/hr 0.00 in0.0 mm
02:25 AM 33.7°F0.9°C 29.0°F-1.7°C 87% Calm Calm -- 30.25 in1024.4 mb 0.00 in0.0 mm 0.00 in/hr0.0 mm/hr 0.00 in0.0 mm
02:20 AM 33.9°F1.1°C 29.2°F-1.6°C 87% Calm Calm -- 30.26 in1024.7 mb 0.00 in0.0 mm 0.00 in/hr0.0 mm/hr 0.00 in0.0 mm
02:15 AM 34.2°F1.2°C 29.1°F-1.6°C 86% Calm Calm 1.1 mph1.8 kmh 30.26 in1024.7 mb 0.00 in0.0 mm 0.00 in/hr0.0 mm/hr 0.00 in0.0 mm
02:10 AM 34.2°F1.2°C 29.2°F-1.6°C 86% 1.7 mph WSW2.7 kmh WSW 4.2 mph6.8 kmh 30.27 in1025.1 mb 0.00 in0.0 mm 0.00 in/hr0.0 mm/hr 0.00 in0.0 mm
02:05 AM 34.3°F1.3°C 29.3°F-1.5°C 86% 1.0 mph WSW1.6 kmh WSW 4.2 mph6.8 kmh 30.27 in1025.1 mb 0.00 in0.0 mm 0.00 in/hr0.0 mm/hr 0.00 in0.0 mm
02:00 AM 34.5°F1.4°C 29.8°F-1.2°C 87% 2.2 mph WSW3.5 kmh WSW 4.7 mph7.6 kmh 30.27 in1025.1 mb 0.00 in0.0 mm 0.00 in/hr0.0 mm/hr 0.00 in0.0 mm
01:55 AM 34.5°F1.4°C 29.8°F-1.2°C 87% 2.0 mph WSW3.2 kmh WSW 4.4 mph7.1 kmh 30.27 in1025.1 mb 0.00 in0.0 mm 0.00 in/hr0.0 mm/hr 0.00 in0.0 mm
01:50 AM 34.6°F1.4°C 29.9°F-1.2°C 87% 2.5 mph SW4.0 kmh SW 4.7 mph7.6 kmh 30.28 in1025.4 mb 0.00 in0.0 mm 0.00 in/hr0.0 mm/hr 0.00 in0.0 mm
01:45 AM 34.7°F1.5°C 30.0°F-1.1°C 87% 1.6 mph WSW2.6 kmh WSW 3.5 mph5.6 kmh 30.28 in1025.4 mb 0.00 in0.0 mm 0.00 in/hr0.0 mm/hr 0.00 in0.0 mm
01:40 AM 34.7°F1.5°C 30.0°F-1.1°C 87% 2.3 mph WSW3.7 kmh WSW 4.4 mph7.1 kmh 30.29 in1025.7 mb 0.00 in0.0 mm 0.00 in/hr0.0 mm/hr 0.00 in0.0 mm
01:35 AM 34.7°F1.5°C 29.7°F-1.3°C 86% 1.3 mph SW2.1 kmh SW 4.9 mph7.9 kmh 30.29 in1025.7 mb 0.00 in0.0 mm 0.00 in/hr0.0 mm/hr 0.00 in0.0 mm
01:30 AM 34.7°F1.5°C 29.7°F-1.3°C 86% 2.8 mph SW4.5 kmh SW 5.5 mph8.9 kmh 30.29 in1025.7 mb 0.00 in0.0 mm 0.00 in/hr0.0 mm/hr 0.00 in0.0 mm
01:25 AM 34.7°F1.5°C 29.7°F-1.3°C 86% 2.2 mph WSW3.5 kmh WSW 7.7 mph12.4 kmh 30.30 in1026.1 mb 0.00 in0.0 mm 0.00 in/hr0.0 mm/hr 0.00 in0.0 mm
01:20 AM 34.7°F1.5°C 29.7°F-1.3°C 86% 1.4 mph SW2.3 kmh SW 4.4 mph7.1 kmh 30.30 in1026.1 mb 0.00 in0.0 mm 0.00 in/hr0.0 mm/hr 0.00 in0.0 mm
01:15 AM 34.7°F1.5°C 29.7°F-1.3°C 86% 3.8 mph SW6.1 kmh SW 6.5 mph10.5 kmh 30.31 in1026.4 mb 0.00 in0.0 mm 0.00 in/hr0.0 mm/hr 0.00 in0.0 mm
01:10 AM 34.7°F1.5°C 29.7°F-1.3°C 86% 2.1 mph WSW3.4 kmh WSW 6.0 mph9.7 kmh 30.31 in1026.4 mb 0.00 in0.0 mm 0.00 in/hr0.0 mm/hr 0.00 in0.0 mm
01:05 AM 34.7°F1.5°C 29.7°F-1.3°C 86% 0.2 mph SE0.3 kmh SE 1.6 mph2.6 kmh 30.31 in1026.4 mb 0.00 in0.0 mm 0.00 in/hr0.0 mm/hr 0.00 in0.0 mm
01:00 AM 34.7°F1.5°C 29.7°F-1.3°C 86% 1.3 mph WSW2.1 kmh WSW 4.7 mph7.6 kmh 30.31 in1026.4 mb 0.00 in0.0 mm 0.00 in/hr0.0 mm/hr 0.00 in0.0 mm
12:55 AM 34.8°F1.6°C 29.7°F-1.3°C 86% 3.0 mph WSW4.8 kmh WSW 6.0 mph9.7 kmh 30.31 in1026.4 mb 0.00 in0.0 mm 0.00 in/hr0.0 mm/hr 0.00 in0.0 mm
12:50 AM 34.8°F1.6°C 29.8°F-1.2°C 86% 3.3 mph WSW5.3 kmh WSW 8.1 mph13.0 kmh 30.31 in1026.4 mb 0.00 in0.0 mm 0.00 in/hr0.0 mm/hr 0.00 in0.0 mm
12:45 AM 34.8°F1.6°C 29.8°F-1.2°C 86% 1.0 mph WNW1.6 kmh WNW 2.7 mph4.3 kmh 30.32 in1026.8 mb 0.00 in0.0 mm 0.00 in/hr0.0 mm/hr 0.00 in0.0 mm
12:40 AM 35.0°F1.7°C 30.0°F-1.1°C 86% 1.3 mph WSW2.1 kmh WSW 3.0 mph4.8 kmh 30.31 in1026.4 mb 0.00 in0.0 mm 0.00 in/hr0.0 mm/hr 0.00 in0.0 mm
12:35 AM 35.1°F1.7°C 30.4°F-0.9°C 87% 3.7 mph WSW6.0 kmh WSW 7.7 mph12.4 kmh 30.31 in1026.4 mb 0.00 in0.0 mm 0.00 in/hr0.0 mm/hr 0.00 in0.0 mm
12:30 AM 35.2°F1.8°C 30.5°F-0.8°C 87% 3.2 mph WSW5.1 kmh WSW 7.0 mph11.3 kmh 30.31 in1026.4 mb 0.00 in0.0 mm 0.00 in/hr0.0 mm/hr 0.00 in0.0 mm
12:25 AM 35.2°F1.8°C 30.5°F-0.8°C 87% 3.1 mph W5.0 kmh W 7.2 mph11.6 kmh 30.31 in1026.4 mb 0.00 in0.0 mm 0.00 in/hr0.0 mm/hr 0.00 in0.0 mm
12:20 AM 35.2°F1.8°C 30.5°F-0.8°C 87% 4.0 mph WSW6.4 kmh WSW 7.9 mph12.7 kmh 30.31 in1026.4 mb 0.00 in0.0 mm 0.00 in/hr0.0 mm/hr 0.00 in0.0 mm
12:15 AM 35.2°F1.8°C 30.5°F-0.8°C 87% 2.1 mph SW3.4 kmh SW 5.7 mph9.2 kmh 30.32 in1026.8 mb 0.00 in0.0 mm 0.00 in/hr0.0 mm/hr 0.00 in0.0 mm
12:10 AM 35.2°F1.8°C 30.5°F-0.8°C 87% 3.3 mph WSW5.3 kmh WSW 6.0 mph9.7 kmh 30.32 in1026.8 mb 0.00 in0.0 mm 0.00 in/hr0.0 mm/hr 0.00 in0.0 mm
12:05 AM 35.2°F1.8°C 30.8°F-0.7°C 88% 2.9 mph W4.7 kmh W 7.0 mph11.3 kmh 30.32 in1026.8 mb 0.00 in0.0 mm 0.00 in/hr0.0 mm/hr 0.00 in0.0 mm
12:00 AM 35.1°F1.7°C 30.7°F-0.7°C 88% 3.3 mph WSW5.3 kmh WSW 7.0 mph11.3 kmh 30.32 in1026.8 mb 0.00 in0.0 mm 0.00 in/hr0.0 mm/hr 0.00 in0.0 mm
WeatherForYou.com, LLC is not responsible for any damages or problems caused by this service. Current weather conditions are obtained from the closest station including government and personal stations which may have varying degrees of accuracy. Weather forecasts are derived from the NOAA NDFD and obtained through HAMweather's Aeris Weather API. Like all things, this site belongs to Jesus Christ... He just trusts me to maintain it. If you have any questions or comments email webmaster@weatherforyou.com

Copyright © 2014, WeatherForYou.com LLC. All rights reserved.